createdAt,value
2019-05-19T00:08:55.607Z,10.10
2019-05-19T00:11:27.065Z,9.90
2019-05-19T00:13:57.483Z,9.90
2019-05-19T00:16:28.025Z,9.90
2019-05-19T00:18:58.501Z,9.80
2019-05-19T00:21:28.976Z,9.90
2019-05-19T00:23:59.983Z,9.90
2019-05-19T00:26:30.542Z,9.90
2019-05-19T00:29:00.970Z,9.80
2019-05-19T00:31:31.396Z,9.80
2019-05-19T00:34:01.821Z,9.80
2019-05-19T01:28:54.833Z,9.80
2019-05-19T01:48:52.320Z,10.40
2019-05-19T01:51:22.837Z,10.40
2019-05-19T01:53:56.551Z,10.40
2019-05-19T01:56:27.224Z,10.40
2019-05-19T01:58:57.704Z,10.40
2019-05-19T02:01:28.144Z,10.40
2019-05-19T02:03:58.761Z,10.40
2019-05-19T02:06:29.191Z,10.40
2019-05-19T02:08:59.615Z,10.40
2019-05-19T02:11:30.175Z,10.30
2019-05-19T02:14:00.571Z,10.30
2019-05-19T02:16:31.000Z,10.30
2019-05-19T02:19:01.430Z,10.20
2019-05-19T02:21:32.876Z,10.20
2019-05-19T02:24:03.333Z,10.20
2019-05-19T02:26:33.734Z,10.20
2019-05-19T02:29:04.204Z,10.20
2019-05-19T02:31:34.687Z,10.10
2019-05-19T02:34:05.133Z,10.10
2019-05-19T03:24:04.749Z,10.10
2019-05-19T03:26:35.170Z,10.60
2019-05-19T03:29:05.710Z,10.60
2019-05-19T03:31:43.106Z,10.60
2019-05-19T03:34:14.284Z,10.60
2019-05-19T03:36:44.768Z,10.60
2019-05-19T03:39:15.196Z,10.60
2019-05-19T03:41:46.649Z,10.60
2019-05-19T03:44:17.068Z,10.60
2019-05-19T03:46:47.496Z,10.60
2019-05-19T03:49:17.921Z,10.60
2019-05-19T03:51:48.458Z,10.60
2019-05-19T03:54:18.962Z,10.50
2019-05-19T03:56:49.822Z,10.60
2019-05-19T03:59:20.348Z,10.50
2019-05-19T04:01:50.822Z,10.60
2019-05-19T04:04:21.317Z,10.60
2019-05-19T04:06:51.732Z,10.60
2019-05-19T04:09:22.158Z,10.70
2019-05-19T04:11:52.586Z,10.70
2019-05-19T04:14:23.011Z,10.80
2019-05-19T04:16:53.444Z,10.80
2019-05-19T04:19:23.866Z,10.80
2019-05-19T04:21:54.303Z,10.80
2019-05-19T04:24:24.720Z,10.80
2019-05-19T04:26:55.158Z,10.90
2019-05-19T04:29:25.780Z,10.90
2019-05-19T04:31:56.410Z,10.90
2019-05-19T04:34:26.884Z,10.90
2019-05-19T04:36:57.573Z,11.00
2019-05-19T04:39:28.204Z,11.00
2019-05-19T04:41:58.836Z,11.00
2019-05-19T04:44:29.268Z,11.00
2019-05-19T04:46:59.804Z,11.10
2019-05-19T04:49:30.321Z,11.10
2019-05-19T04:52:06.584Z,11.10
2019-05-19T04:54:32.827Z,11.20
2019-05-19T04:57:03.553Z,11.10
2019-05-19T04:59:33.979Z,11.10
2019-05-19T05:02:04.403Z,11.20
2019-05-19T05:04:35.078Z,11.20
2019-05-19T05:07:05.563Z,11.20
2019-05-19T05:09:37.220Z,11.30
2019-05-19T05:12:07.650Z,11.40
2019-05-19T05:14:38.094Z,11.40
2019-05-19T05:17:08.501Z,11.50
2019-05-19T05:19:39.033Z,11.50
2019-05-19T05:22:21.196Z,11.50
2019-05-19T05:24:41.526Z,11.60
2019-05-19T05:27:11.961Z,11.70
2019-05-19T05:29:42.479Z,11.60
2019-05-19T05:32:13.007Z,11.70
2019-05-19T05:34:43.434Z,11.80
2019-05-19T05:37:13.907Z,11.90
2019-05-19T05:39:44.396Z,12.00
2019-05-19T05:42:14.819Z,11.90
2019-05-19T05:44:45.348Z,12.00
2019-05-19T05:47:15.775Z,12.10
2019-05-19T05:49:50.170Z,12.20
2019-05-19T05:52:19.396Z,12.30
2019-05-19T05:54:49.849Z,12.40
2019-05-19T05:57:20.543Z,12.50
2019-05-19T05:59:50.982Z,12.50
2019-05-19T06:02:21.408Z,12.50
2019-05-19T06:04:51.834Z,12.60
2019-05-19T06:07:22.412Z,12.80
2019-05-19T06:09:52.900Z,13.00
2019-05-19T06:12:23.320Z,13.00
2019-05-19T06:14:53.747Z,13.10
2019-05-19T06:17:24.231Z,13.20
2019-05-19T06:27:23.634Z,13.30
2019-05-19T06:29:54.262Z,13.70
2019-05-19T06:32:31.408Z,13.60
2019-05-19T06:35:01.946Z,13.60
2019-05-19T06:37:32.505Z,13.70
2019-05-19T06:40:04.163Z,13.80
2019-05-19T06:42:34.596Z,13.90
2019-05-19T06:45:05.427Z,14.10
2019-05-19T06:47:35.895Z,14.10
2019-05-19T06:50:07.020Z,14.20
2019-05-19T06:52:37.632Z,14.30
2019-05-19T06:55:09.462Z,14.50
2019-05-19T06:57:40.212Z,14.60
2019-05-19T07:00:11.208Z,14.60
2019-05-19T07:02:41.767Z,14.60
2019-05-19T07:05:12.542Z,14.60
2019-05-19T07:07:43.179Z,14.60
2019-05-19T07:10:14.350Z,14.40
2019-05-19T07:12:44.835Z,14.60
2019-05-19T07:15:15.772Z,14.70
2019-05-19T07:17:46.201Z,14.90
2019-05-19T07:20:18.934Z,15.00
2019-05-19T07:22:49.415Z,15.00
2019-05-19T07:25:19.838Z,15.10
2019-05-19T07:27:50.369Z,15.10
2019-05-19T07:30:21.820Z,15.10
2019-05-19T07:32:52.344Z,15.30
2019-05-19T07:45:22.028Z,16.80
2019-05-19T07:47:52.449Z,17.10
2019-05-19T07:50:23.900Z,17.60
2019-05-19T07:52:54.552Z,17.80
2019-05-19T07:55:24.969Z,18.30
2019-05-19T07:57:55.676Z,18.70
2019-05-19T08:00:26.121Z,19.10
2019-05-19T08:02:56.551Z,19.20
2019-05-19T08:05:27.003Z,19.00
2019-05-19T08:07:57.399Z,19.10
2019-05-19T08:10:28.924Z,19.10
2019-05-19T08:12:59.525Z,19.20
2019-05-19T08:15:30.029Z,19.20
2019-05-19T08:18:00.450Z,19.20
2019-05-19T08:20:30.971Z,18.90
2019-05-19T08:23:01.409Z,18.80
2019-05-19T08:25:31.822Z,18.80
2019-05-19T08:28:08.494Z,18.80
2019-05-19T08:30:34.441Z,18.20
2019-05-19T08:33:04.855Z,18.10
2019-05-19T08:35:35.375Z,18.30
2019-05-19T08:38:05.812Z,18.10
2019-05-19T08:40:37.276Z,18.20
2019-05-19T08:43:07.707Z,18.20
2019-05-19T08:45:38.178Z,18.10
2019-05-19T08:48:08.661Z,18.20
2019-05-19T08:50:39.067Z,18.40
2019-05-19T08:53:09.494Z,18.70
2019-05-19T08:55:40.020Z,18.90
2019-05-19T08:58:10.755Z,19.10
2019-05-19T09:00:42.211Z,19.10
2019-05-19T09:03:12.906Z,18.90
2019-05-19T09:05:43.372Z,18.70
2019-05-19T09:08:13.918Z,18.70
2019-05-19T09:10:44.532Z,19.10
2019-05-19T09:13:14.988Z,19.50
2019-05-19T09:15:45.769Z,19.80
2019-05-19T09:18:16.219Z,20.10
2019-05-19T09:20:47.675Z,20.20
2019-05-19T09:23:18.095Z,20.40
2019-05-19T09:25:48.525Z,20.70
2019-05-19T09:28:18.950Z,21.00
2019-05-19T09:30:50.399Z,21.40
2019-05-19T09:33:20.929Z,21.20
2019-05-19T09:35:52.957Z,21.10
2019-05-19T09:38:23.320Z,21.50
2019-05-19T09:40:54.872Z,21.90
2019-05-19T09:43:25.404Z,22.20
2019-05-19T09:45:55.935Z,22.20
2019-05-19T09:48:26.512Z,22.40
2019-05-19T09:50:58.283Z,23.50
2019-05-19T09:53:28.750Z,24.00
2019-05-19T09:55:59.174Z,25.10
2019-05-19T09:58:29.822Z,25.40
2019-05-19T10:01:00.340Z,25.30
2019-05-19T10:03:30.870Z,24.50
2019-05-19T10:06:01.293Z,23.40
2019-05-19T10:08:42.589Z,22.70
2019-05-19T10:11:36.058Z,21.90
2019-05-19T10:14:06.570Z,21.40
2019-05-19T10:16:37.003Z,21.00
2019-05-19T10:19:07.584Z,20.60
2019-05-19T10:21:38.158Z,19.90
2019-05-19T10:24:08.586Z,19.40
2019-05-19T10:26:39.019Z,19.00
2019-05-19T10:29:09.716Z,18.90
2019-05-19T10:31:40.178Z,18.90
2019-05-19T10:34:10.601Z,19.00
2019-05-19T10:36:41.131Z,19.30
2019-05-19T10:39:11.659Z,19.60
2019-05-19T10:41:42.297Z,19.90
2019-05-19T10:44:12.717Z,20.10
2019-05-19T10:46:43.145Z,20.30
2019-05-19T10:49:13.582Z,20.50
2019-05-19T10:51:44.267Z,20.30
2019-05-19T10:54:14.842Z,20.00
2019-05-19T10:56:45.262Z,19.80
2019-05-19T10:59:15.996Z,20.10
2019-05-19T11:01:46.422Z,21.00
2019-05-19T11:04:16.859Z,21.90
2019-05-19T11:06:47.280Z,23.30
2019-05-19T11:09:17.884Z,24.40
2019-05-19T11:11:48.339Z,25.90
2019-05-19T11:14:18.763Z,26.90
2019-05-19T11:16:49.190Z,27.50
2019-05-19T11:19:19.625Z,28.00
2019-05-19T11:21:51.070Z,28.80
2019-05-19T11:24:21.670Z,30.20
2019-05-19T11:26:52.128Z,31.00
2019-05-19T11:29:22.555Z,31.20
2019-05-19T11:31:53.086Z,29.50
2019-05-19T11:34:24.749Z,27.80
2019-05-19T11:36:55.292Z,27.10
2019-05-19T11:39:25.695Z,26.50
2019-05-19T11:41:56.140Z,26.00
2019-05-19T11:44:26.556Z,25.40
2019-05-19T11:46:56.978Z,25.30
2019-05-19T11:49:27.402Z,26.30
2019-05-19T11:51:57.830Z,27.90
2019-05-19T11:54:28.264Z,29.00
2019-05-19T11:56:58.730Z,30.20
2019-05-19T11:59:29.371Z,29.70
2019-05-19T12:01:59.851Z,28.90
2019-05-19T12:04:30.272Z,29.10
2019-05-19T12:07:00.700Z,30.40
2019-05-19T12:09:32.150Z,32.10
2019-05-19T12:12:02.591Z,33.20
2019-05-19T12:14:33.097Z,34.60
2019-05-19T12:17:03.538Z,35.90
2019-05-19T12:19:33.964Z,36.10
2019-05-19T12:22:04.564Z,35.80
2019-05-19T12:24:35.017Z,35.60
2019-05-19T12:27:05.493Z,35.50
2019-05-19T12:29:35.975Z,35.10
2019-05-19T12:32:07.127Z,35.50
2019-05-19T12:34:37.547Z,35.10
2019-05-19T12:37:07.963Z,34.70
2019-05-19T12:39:38.400Z,34.10
2019-05-19T12:42:08.827Z,33.40
2019-05-19T12:44:39.255Z,32.00
2019-05-19T12:47:09.681Z,30.10
2019-05-19T12:49:40.108Z,28.70
2019-05-19T12:52:10.547Z,27.90
2019-05-19T12:54:40.982Z,28.20
2019-05-19T12:57:11.389Z,28.60
2019-05-19T12:59:41.858Z,28.40
2019-05-19T13:02:12.344Z,28.40
2019-05-19T13:04:42.978Z,28.40
2019-05-19T13:07:13.404Z,28.90
2019-05-19T13:09:43.941Z,30.20
2019-05-19T13:12:14.372Z,32.20
2019-05-19T13:14:46.323Z,34.40
2019-05-19T13:17:16.754Z,36.30
2019-05-19T13:19:48.421Z,35.80
2019-05-19T13:22:18.844Z,34.10
2019-05-19T13:24:49.262Z,33.80
2019-05-19T13:27:19.691Z,34.40
2019-05-19T13:29:50.258Z,35.50
2019-05-19T13:32:20.749Z,35.90
2019-05-19T13:34:51.164Z,36.10
2019-05-19T13:37:21.599Z,36.00
2019-05-19T13:39:52.040Z,36.00
2019-05-19T13:42:22.663Z,35.80
2019-05-19T13:44:53.084Z,34.80
2019-05-19T13:47:23.513Z,34.00
2019-05-19T13:49:54.036Z,33.10
2019-05-19T13:52:24.468Z,34.30
2019-05-19T13:54:54.914Z,35.30
2019-05-19T13:57:25.394Z,35.90
2019-05-19T13:59:56.024Z,35.80
2019-05-19T14:02:26.530Z,36.00
2019-05-19T14:04:58.244Z,36.00
2019-05-19T14:07:28.669Z,35.70
2019-05-19T14:09:59.096Z,34.80
2019-05-19T14:12:29.525Z,32.50
2019-05-19T14:14:59.951Z,29.50
2019-05-19T14:17:30.377Z,28.80
2019-05-19T14:20:01.841Z,29.40
2019-05-19T14:22:32.359Z,30.20
2019-05-19T14:25:02.785Z,30.30
2019-05-19T14:27:33.211Z,29.60
2019-05-19T14:30:05.319Z,28.30
2019-05-19T14:32:35.955Z,28.50
2019-05-19T14:35:07.024Z,28.80
2019-05-19T14:37:37.479Z,29.70
2019-05-19T14:40:09.180Z,29.40
2019-05-19T14:42:47.447Z,29.60
2019-05-19T14:45:19.352Z,29.50
2019-05-19T14:47:49.842Z,29.90
2019-05-19T14:50:20.667Z,29.80
2019-05-19T14:52:51.100Z,29.20
2019-05-19T14:55:22.757Z,29.30
2019-05-19T14:57:53.182Z,28.70
2019-05-19T15:00:23.861Z,28.60
2019-05-19T15:02:54.499Z,28.60
2019-05-19T15:05:24.977Z,28.60
2019-05-19T15:07:55.447Z,27.30
2019-05-19T15:10:25.932Z,26.70
2019-05-19T15:12:56.359Z,26.50
2019-05-19T15:15:26.776Z,26.60
2019-05-19T15:17:57.213Z,26.40
2019-05-19T15:20:27.651Z,26.90
2019-05-19T15:22:58.499Z,26.60
2019-05-19T15:25:28.906Z,26.40
2019-05-19T15:28:01.533Z,27.10
2019-05-19T15:30:32.412Z,27.60
2019-05-19T15:33:02.901Z,27.30
2019-05-19T15:35:33.418Z,27.10
2019-05-19T15:38:03.905Z,26.30
2019-05-19T15:40:34.332Z,25.50
2019-05-19T15:43:04.752Z,24.70
2019-05-19T15:45:35.194Z,24.00
2019-05-19T15:48:05.613Z,23.00
2019-05-19T15:50:36.042Z,22.20
2019-05-19T15:53:06.468Z,21.60
2019-05-19T15:55:36.894Z,21.30
2019-05-19T15:58:16.069Z,21.10
2019-05-19T16:00:39.430Z,20.80
2019-05-19T16:03:10.191Z,20.50
2019-05-19T16:05:40.720Z,20.40
2019-05-19T16:08:11.178Z,20.40
2019-05-19T16:10:41.615Z,20.30
2019-05-19T16:13:12.038Z,19.90
2019-05-19T16:15:42.518Z,19.30
2019-05-19T16:18:12.990Z,19.20
2019-05-19T16:20:44.444Z,19.10
2019-05-19T16:23:16.197Z,19.10
2019-05-19T16:25:46.632Z,19.20
2019-05-19T16:28:29.953Z,19.20
2019-05-19T16:30:50.246Z,19.00
2019-05-19T16:33:22.260Z,18.80
2019-05-19T16:35:52.787Z,18.50
2019-05-19T16:38:23.319Z,18.50
2019-05-19T16:40:53.917Z,18.30
2019-05-19T16:43:24.499Z,18.00
2019-05-19T16:45:54.947Z,17.80
2019-05-19T16:48:25.386Z,17.60
2019-05-19T16:50:55.913Z,17.50
2019-05-19T16:53:26.339Z,17.40
2019-05-19T16:55:56.760Z,17.40
2019-05-19T16:58:27.193Z,17.50
2019-05-19T17:00:59.025Z,17.60
2019-05-19T17:03:29.550Z,17.60
2019-05-19T17:06:00.066Z,17.70
2019-05-19T17:08:30.839Z,17.60
2019-05-19T17:11:01.276Z,17.60
2019-05-19T17:13:31.690Z,17.40
2019-05-19T17:16:02.166Z,17.00
2019-05-19T17:18:33.990Z,16.70
2019-05-19T17:21:04.517Z,16.60
2019-05-19T17:23:34.946Z,16.40
2019-05-19T17:26:05.473Z,16.40
2019-05-19T17:28:35.903Z,16.30
2019-05-19T17:31:07.875Z,16.10
2019-05-19T17:33:38.396Z,15.90
2019-05-19T17:36:09.026Z,15.90
2019-05-19T17:38:39.452Z,15.80
2019-05-19T17:41:10.963Z,15.70
2019-05-19T17:43:41.432Z,15.60
2019-05-19T17:46:11.876Z,15.70
2019-05-19T17:48:42.502Z,15.70
2019-05-19T17:51:13.067Z,15.70
2019-05-19T17:53:43.763Z,15.70
2019-05-19T17:56:16.119Z,15.70
2019-05-19T17:58:47.167Z,15.40
2019-05-19T18:03:47.559Z,15.30
2019-05-19T18:06:18.190Z,15.20
2019-05-19T18:08:48.807Z,15.20
2019-05-19T18:11:19.313Z,15.20
2019-05-19T18:13:49.752Z,15.20
2019-05-19T18:16:20.156Z,15.10
2019-05-19T18:18:50.593Z,15.00
2019-05-19T18:21:21.216Z,15.00
2019-05-19T18:23:51.866Z,14.90
2019-05-19T18:26:22.342Z,14.90
2019-05-19T18:28:52.804Z,14.90
2019-05-19T18:31:24.256Z,14.90
2019-05-19T18:33:54.682Z,14.80
2019-05-19T18:36:25.111Z,14.90
2019-05-19T18:38:55.640Z,14.90
2019-05-19T18:41:26.273Z,14.90
2019-05-19T18:43:56.842Z,14.90
2019-05-19T18:46:27.357Z,14.80
2019-05-19T18:48:57.773Z,14.80
2019-05-19T18:51:28.556Z,14.80
2019-05-19T18:53:59.025Z,14.90
2019-05-19T18:56:29.679Z,14.90
2019-05-19T18:59:00.288Z,15.00
2019-05-19T19:01:31.782Z,14.90
2019-05-19T19:04:02.481Z,14.90
2019-05-19T19:06:33.818Z,14.90
2019-05-19T19:09:04.516Z,14.90
2019-05-19T19:11:34.984Z,14.80
2019-05-19T19:14:05.619Z,14.60
2019-05-19T19:16:37.094Z,14.40
2019-05-19T19:19:07.590Z,14.30
2019-05-19T19:21:39.144Z,14.20
2019-05-19T19:24:09.784Z,14.10
2019-05-19T19:26:40.393Z,14.10
2019-05-19T19:29:10.835Z,14.00
2019-05-19T19:31:48.657Z,13.90
2019-05-19T19:34:14.759Z,13.80
2019-05-19T19:36:45.323Z,13.80
2019-05-19T19:39:15.836Z,13.70
2019-05-19T19:41:46.463Z,13.60
2019-05-19T19:44:16.883Z,13.60
2019-05-19T19:46:47.351Z,13.50
2019-05-19T19:49:17.913Z,13.30
2019-05-19T19:51:48.774Z,13.30
2019-05-19T19:54:19.204Z,13.10
2019-05-19T19:56:50.755Z,13.00
2019-05-19T19:59:21.257Z,12.90
2019-05-19T20:01:51.846Z,12.90
2019-05-19T20:04:22.521Z,12.80
2019-05-19T20:06:53.652Z,12.80
2019-05-19T20:09:24.118Z,12.80
2019-05-19T20:11:54.548Z,12.80
2019-05-19T20:14:25.295Z,12.80
2019-05-19T20:16:55.826Z,12.80
2019-05-19T20:19:26.513Z,12.80
2019-05-19T20:21:59.836Z,12.70
2019-05-19T20:24:30.277Z,12.70
2019-05-19T20:27:00.745Z,12.70
2019-05-19T20:29:31.221Z,12.60
2019-05-19T20:32:02.306Z,12.50
2019-05-19T20:34:32.797Z,12.40
2019-05-19T20:37:03.328Z,12.40
2019-05-19T20:39:35.022Z,12.30
2019-05-19T20:42:05.628Z,12.20
2019-05-19T20:44:36.351Z,12.20
2019-05-19T20:47:06.790Z,12.20
2019-05-19T20:49:37.348Z,12.10
2019-05-19T20:52:07.859Z,12.10
2019-05-19T20:54:38.286Z,12.00
2019-05-19T20:57:08.687Z,12.00
2019-05-19T20:59:39.221Z,11.90
2019-05-19T21:02:09.635Z,11.90
2019-05-19T21:04:40.129Z,11.80
2019-05-19T21:07:10.749Z,11.90
2019-05-19T21:09:41.225Z,11.80
2019-05-19T21:12:11.651Z,11.80
2019-05-19T21:14:43.262Z,11.70
2019-05-19T21:17:13.743Z,11.70
2019-05-19T21:19:46.005Z,11.70
2019-05-19T21:22:16.440Z,11.70
2019-05-19T21:24:46.872Z,11.80
2019-05-19T21:27:17.287Z,11.70
2019-05-19T21:29:48.948Z,11.80
2019-05-19T21:32:19.394Z,11.80
2019-05-19T21:34:49.807Z,11.90
2019-05-19T21:37:20.226Z,11.90
2019-05-19T21:39:50.860Z,11.90
2019-05-19T21:42:21.487Z,12.00
2019-05-19T21:44:52.118Z,12.00
2019-05-19T21:47:25.617Z,12.00
2019-05-19T21:49:56.202Z,12.00
2019-05-19T21:52:26.682Z,12.00
2019-05-19T21:54:57.418Z,12.00
2019-05-19T21:57:27.844Z,12.00
2019-05-19T21:59:59.293Z,12.10
2019-05-19T22:02:29.718Z,12.10
2019-05-19T22:05:01.633Z,12.10
2019-05-19T22:07:52.379Z,12.10
2019-05-19T22:10:23.014Z,12.10
2019-05-19T22:12:53.644Z,12.10
2019-05-19T22:15:24.277Z,12.10
2019-05-19T22:17:54.911Z,12.10
2019-05-19T22:20:25.522Z,12.20
2019-05-19T22:22:55.972Z,12.20
2019-05-19T22:25:26.497Z,12.20
2019-05-19T22:27:56.923Z,12.20
2019-05-19T22:30:28.422Z,12.20
2019-05-19T22:32:58.809Z,12.20
2019-05-19T22:35:29.239Z,12.20
2019-05-19T22:37:59.663Z,12.20
2019-05-19T22:40:30.189Z,12.10
2019-05-19T22:43:00.617Z,12.20
2019-05-19T22:45:31.038Z,12.20
2019-05-19T22:48:01.464Z,12.20
2019-05-19T22:50:32.918Z,12.20
2019-05-19T22:53:03.467Z,12.10
2019-05-19T22:55:33.875Z,12.20
2019-05-19T22:58:04.305Z,12.20
2019-05-19T23:00:34.832Z,12.10
2019-05-19T23:03:05.357Z,12.10
2019-05-19T23:05:35.848Z,12.10
2019-05-19T23:08:06.443Z,12.10
2019-05-19T23:10:36.955Z,12.10
2019-05-19T23:13:08.372Z,12.10
2019-05-19T23:15:39.244Z,12.10
2019-05-19T23:18:09.660Z,12.10
2019-05-19T23:20:40.090Z,12.10
2019-05-19T23:23:10.518Z,12.10
2019-05-19T23:25:40.989Z,12.00
2019-05-19T23:28:11.471Z,12.10
2019-05-19T23:30:42.926Z,12.00
2019-05-19T23:33:13.400Z,12.00
2019-05-19T23:35:43.894Z,12.00
2019-05-19T23:38:14.410Z,12.00
2019-05-19T23:40:44.996Z,11.90
2019-05-19T23:43:15.480Z,11.90
2019-05-19T23:45:45.894Z,11.90
2019-05-19T23:48:16.523Z,11.90
2019-05-19T23:50:46.951Z,11.90
2019-05-19T23:53:17.383Z,11.90
2019-05-19T23:55:47.862Z,11.90
2019-05-19T23:58:18.336Z,11.90
